createdAt,value
2023-03-20T00:02:21.808Z,6.63
2023-03-20T00:04:48.913Z,7.97
2023-03-20T00:07:16.071Z,11.35
2023-03-20T00:09:43.184Z,6.10
2023-03-20T00:12:23.371Z,9.00
2023-03-20T00:14:50.383Z,7.07
2023-03-20T00:17:20.861Z,7.60
2023-03-20T00:19:48.262Z,9.20
2023-03-20T00:22:15.294Z,6.75
2023-03-20T00:24:42.426Z,10.27
2023-03-20T00:27:14.149Z,7.13
2023-03-20T00:29:41.385Z,8.25
2023-03-20T00:32:15.393Z,8.40
2023-03-20T00:34:42.519Z,6.97
2023-03-20T00:37:11.567Z,9.27
2023-03-20T00:39:38.920Z,9.45
2023-03-20T00:42:07.934Z,7.50
2023-03-20T00:44:41.983Z,8.70
2023-03-20T00:47:20.014Z,8.18
2023-03-20T00:49:49.912Z,8.98
2023-03-20T00:52:22.462Z,7.80
2023-03-20T00:54:51.808Z,8.02
2023-03-20T00:57:30.523Z,7.20
2023-03-20T01:00:00.217Z,9.02
2023-03-20T01:02:30.976Z,9.90
2023-03-20T01:04:58.432Z,9.38
2023-03-20T01:07:26.552Z,6.90
2023-03-20T01:09:53.599Z,8.30
2023-03-20T01:12:20.808Z,6.82
2023-03-20T01:14:55.125Z,5.55
2023-03-20T01:17:24.062Z,6.97
2023-03-20T01:19:51.278Z,7.93
2023-03-20T01:22:18.215Z,6.80
2023-03-20T01:24:45.408Z,6.78
2023-03-20T01:27:16.189Z,6.05
2023-03-20T01:29:44.446Z,5.72
2023-03-20T01:32:18.422Z,5.90
2023-03-20T01:34:48.894Z,6.60
2023-03-20T01:37:26.031Z,5.53
2023-03-20T01:39:54.024Z,6.22
2023-03-20T01:42:21.185Z,7.18
2023-03-20T01:44:48.922Z,7.13
2023-03-20T01:47:21.106Z,8.02
2023-03-20T01:50:29.590Z,7.60
2023-03-20T01:53:21.100Z,8.57
2023-03-20T01:55:57.439Z,7.82
2023-03-20T01:58:37.144Z,8.45
2023-03-20T02:01:09.132Z,7.65
2023-03-20T02:03:36.599Z,8.88
2023-03-20T02:06:26.876Z,5.60
2023-03-20T02:09:11.750Z,6.65
2023-03-20T02:11:43.623Z,7.35
2023-03-20T02:14:11.644Z,8.35
2023-03-20T02:16:50.809Z,9.25
2023-03-20T02:20:01.195Z,8.65
2023-03-20T02:22:54.844Z,8.70
2023-03-20T02:25:59.555Z,6.70
2023-03-20T02:29:23.008Z,6.28
2023-03-20T02:32:36.232Z,8.90
2023-03-20T02:35:47.719Z,7.63
2023-03-20T02:38:32.596Z,8.23
2023-03-20T02:41:24.165Z,9.45
2023-03-20T02:44:32.416Z,9.27
2023-03-20T02:47:51.856Z,6.43
2023-03-20T02:50:56.061Z,9.88
2023-03-20T02:53:59.677Z,8.90
2023-03-20T02:56:59.633Z,7.43
2023-03-20T02:59:46.486Z,7.28
2023-03-20T03:02:22.855Z,8.13
2023-03-20T03:05:03.826Z,9.40
2023-03-20T03:07:33.679Z,9.30
2023-03-20T03:10:12.080Z,6.57
2023-03-20T03:12:43.635Z,10.77
2023-03-20T03:15:26.224Z,9.27
2023-03-20T03:17:53.504Z,6.65
2023-03-20T03:20:31.311Z,11.50
2023-03-20T03:23:00.373Z,8.00
2023-03-20T03:25:38.594Z,9.77
2023-03-20T03:28:27.425Z,8.05
2023-03-20T03:30:56.662Z,7.40
2023-03-20T03:33:35.942Z,7.72
2023-03-20T03:36:32.109Z,6.20
2023-03-20T03:39:28.082Z,6.78
2023-03-20T03:42:07.045Z,6.28
2023-03-20T03:44:59.918Z,7.97
2023-03-20T03:47:46.543Z,7.38
2023-03-20T03:50:21.882Z,8.27
2023-03-20T03:52:52.066Z,7.40
2023-03-20T03:55:36.383Z,7.13
2023-03-20T03:58:16.283Z,5.63
2023-03-20T04:00:47.863Z,7.18
2023-03-20T04:03:16.315Z,7.90
2023-03-20T04:05:46.178Z,6.55
2023-03-20T04:08:16.389Z,5.97
2023-03-20T04:10:43.505Z,7.72
2023-03-20T04:13:11.748Z,6.68
2023-03-20T04:15:38.759Z,9.45
2023-03-20T04:18:07.269Z,6.70
2023-03-20T04:20:35.296Z,7.47
2023-03-20T04:23:02.635Z,9.40
2023-03-20T04:25:29.662Z,6.47
2023-03-20T04:27:57.973Z,6.03
2023-03-20T04:30:48.301Z,6.78
2023-03-20T04:33:28.957Z,6.20
2023-03-20T04:36:20.768Z,7.63
2023-03-20T04:38:48.897Z,9.13
2023-03-20T04:41:16.659Z,8.02
2023-03-20T04:43:44.903Z,9.55
2023-03-20T04:46:11.945Z,8.00
2023-03-20T04:48:39.035Z,9.35
2023-03-20T04:51:06.262Z,9.80
2023-03-20T04:53:43.698Z,8.00
2023-03-20T04:56:10.817Z,9.98
2023-03-20T04:58:38.720Z,9.32
2023-03-20T05:01:05.947Z,9.32
2023-03-20T05:03:33.369Z,8.98
2023-03-20T05:06:00.430Z,9.82
2023-03-20T05:08:27.680Z,8.93
2023-03-20T05:10:58.833Z,8.88
2023-03-20T05:13:44.290Z,10.55
2023-03-20T05:16:25.353Z,9.73
2023-03-20T05:19:15.012Z,11.48
2023-03-20T05:21:53.240Z,10.15
2023-03-20T05:24:39.551Z,9.07
2023-03-20T05:27:30.732Z,8.90
2023-03-20T05:30:23.476Z,12.35
2023-03-20T05:33:09.308Z,7.38
2023-03-20T05:36:14.596Z,8.35
2023-03-20T05:39:16.648Z,14.25
2023-03-20T05:42:02.285Z,9.65
2023-03-20T05:44:32.145Z,8.35
2023-03-20T05:47:20.841Z,10.43
2023-03-20T05:50:13.913Z,8.85
2023-03-20T05:55:39.146Z,9.98
2023-03-20T05:58:26.337Z,9.10
2023-03-20T06:01:11.934Z,9.00
2023-03-20T06:03:42.147Z,10.35
2023-03-20T06:06:16.001Z,11.85
2023-03-20T06:08:46.653Z,9.05
2023-03-20T06:11:14.654Z,11.60
2023-03-20T06:13:41.797Z,10.85
2023-03-20T06:16:09.413Z,9.60
2023-03-20T06:18:39.085Z,11.82
2023-03-20T06:21:08.123Z,10.45
2023-03-20T06:23:36.208Z,12.00
2023-03-20T06:26:03.247Z,11.65
2023-03-20T06:28:38.172Z,13.05
2023-03-20T06:31:09.810Z,17.20
2023-03-20T06:33:37.997Z,14.27
2023-03-20T06:36:05.559Z,14.88
2023-03-20T06:38:32.838Z,15.57
2023-03-20T06:41:05.522Z,17.60
2023-03-20T06:43:32.682Z,18.77
2023-03-20T06:45:59.964Z,19.50
2023-03-20T06:48:29.071Z,19.95
2023-03-20T06:50:56.235Z,20.45
2023-03-20T06:53:27.800Z,23.40
2023-03-20T06:56:01.717Z,26.88
2023-03-20T06:58:29.236Z,26.27
2023-03-20T07:00:56.232Z,23.25
2023-03-20T07:03:23.611Z,20.58
2023-03-20T07:05:51.229Z,19.17
2023-03-20T07:08:19.826Z,20.65
2023-03-20T07:10:49.412Z,23.50
2023-03-20T07:13:16.424Z,20.00
2023-03-20T07:15:57.541Z,23.30
2023-03-20T07:18:33.363Z,24.27
2023-03-20T07:21:05.012Z,24.08
2023-03-20T07:23:34.549Z,27.00
2023-03-20T07:26:03.303Z,26.48
2023-03-20T07:28:30.689Z,27.85
2023-03-20T07:31:24.728Z,30.88
2023-03-20T07:34:04.285Z,33.53
2023-03-20T07:36:33.846Z,30.40
2023-03-20T07:39:00.784Z,28.65
2023-03-20T07:41:30.863Z,38.28
2023-03-20T07:44:08.301Z,31.77
2023-03-20T07:46:48.701Z,33.40
2023-03-20T07:49:18.524Z,35.78
2023-03-20T07:51:47.968Z,36.80
2023-03-20T07:54:15.564Z,31.10
2023-03-20T07:56:42.547Z,33.97
2023-03-20T07:59:09.760Z,30.08
2023-03-20T08:01:36.817Z,32.00
2023-03-20T08:04:04.331Z,34.45
2023-03-20T08:06:31.495Z,36.67
2023-03-20T08:08:58.901Z,37.15
2023-03-20T08:11:25.993Z,34.58
2023-03-20T08:13:53.138Z,36.70
2023-03-20T08:16:20.197Z,29.15
2023-03-20T08:18:47.195Z,33.67
2023-03-20T08:21:14.302Z,29.33
2023-03-20T08:23:41.274Z,28.65
2023-03-20T08:26:08.735Z,32.10
2023-03-20T08:28:47.235Z,26.25
2023-03-20T08:31:17.755Z,27.98
2023-03-20T08:33:46.463Z,25.77
2023-03-20T08:36:15.447Z,30.80
2023-03-20T08:38:43.364Z,30.48
2023-03-20T08:41:10.363Z,32.13
2023-03-20T08:43:37.393Z,34.80
2023-03-20T08:46:05.446Z,34.65
2023-03-20T08:48:32.501Z,26.63
2023-03-20T08:50:59.729Z,28.15
2023-03-20T08:53:27.523Z,26.75
2023-03-20T08:55:55.071Z,27.98
2023-03-20T08:58:22.908Z,28.85
2023-03-20T09:00:50.220Z,28.35
2023-03-20T09:03:21.239Z,31.52
2023-03-20T09:05:51.266Z,31.63
2023-03-20T09:08:19.068Z,33.28
2023-03-20T09:10:51.406Z,32.17
2023-03-20T09:13:27.152Z,29.65
2023-03-20T09:15:56.706Z,29.83
2023-03-20T09:18:24.172Z,26.92
2023-03-20T09:20:51.506Z,24.90
2023-03-20T09:23:19.205Z,26.73
2023-03-20T09:25:47.290Z,23.80
2023-03-20T09:28:14.412Z,22.98
2023-03-20T09:30:43.434Z,20.00
2023-03-20T09:33:10.490Z,23.50
2023-03-20T09:35:37.866Z,21.75
2023-03-20T09:38:05.197Z,21.73
2023-03-20T09:41:00.629Z,19.02
2023-03-20T09:43:52.472Z,18.63
2023-03-20T09:47:19.228Z,22.08
2023-03-20T09:49:56.149Z,20.58
2023-03-20T09:52:37.793Z,20.55
2023-03-20T09:55:43.022Z,20.42
2023-03-20T09:58:25.831Z,14.65
2023-03-20T10:00:58.864Z,21.83
2023-03-20T10:03:49.987Z,16.80
2023-03-20T10:06:17.989Z,19.55
2023-03-20T10:08:46.443Z,17.90
2023-03-20T10:11:54.535Z,17.05
2023-03-20T10:15:14.782Z,15.38
2023-03-20T10:18:26.854Z,16.45
2023-03-20T10:21:07.568Z,17.48
2023-03-20T10:24:06.035Z,15.65
2023-03-20T10:26:38.453Z,17.63
2023-03-20T10:29:34.496Z,16.67
2023-03-20T10:32:35.968Z,19.45
2023-03-20T10:35:14.842Z,14.35
2023-03-20T10:38:08.133Z,15.52
2023-03-20T10:40:41.745Z,11.25
2023-03-20T10:43:19.081Z,12.60
2023-03-20T10:45:53.453Z,12.68
2023-03-20T10:48:43.297Z,10.68
2023-03-20T10:51:17.288Z,12.32
2023-03-20T10:53:56.487Z,11.77
2023-03-20T10:56:37.954Z,12.57
2023-03-20T10:59:31.763Z,10.40
2023-03-20T11:01:58.956Z,13.32
2023-03-20T11:04:26.256Z,14.93
2023-03-20T11:07:06.333Z,12.43
2023-03-20T11:09:33.841Z,13.63
2023-03-20T11:12:03.360Z,10.32
2023-03-20T11:14:37.954Z,14.75
2023-03-20T11:17:07.171Z,13.38
2023-03-20T11:19:41.007Z,10.80
2023-03-20T11:22:26.215Z,12.27
2023-03-20T11:25:01.328Z,13.68
2023-03-20T11:27:34.131Z,13.75
2023-03-20T11:30:05.164Z,18.25
2023-03-20T11:32:36.001Z,13.98
2023-03-20T11:35:26.201Z,12.75
2023-03-20T11:37:58.550Z,13.48
2023-03-20T11:40:32.301Z,13.98
2023-03-20T11:43:02.722Z,10.95
2023-03-20T11:45:48.815Z,12.65
2023-03-20T11:48:25.293Z,10.15
2023-03-20T11:53:37.451Z,12.70
2023-03-20T11:56:13.614Z,8.05
2023-03-20T11:58:56.884Z,12.65
2023-03-20T12:01:25.396Z,9.93
2023-03-20T12:04:07.566Z,12.40
2023-03-20T12:07:44.827Z,10.40
2023-03-20T12:10:14.170Z,9.65
2023-03-20T12:12:48.594Z,10.57
2023-03-20T12:15:37.483Z,13.38
2023-03-20T12:18:26.658Z,10.35
2023-03-20T12:21:22.979Z,9.35
2023-03-20T12:23:57.032Z,8.73
2023-03-20T12:26:39.964Z,11.23
2023-03-20T12:29:31.693Z,19.55
2023-03-20T12:32:38.681Z,13.70
2023-03-20T12:35:17.084Z,13.48
2023-03-20T12:37:44.239Z,12.38
2023-03-20T12:40:18.870Z,11.32
2023-03-20T12:42:59.390Z,12.07
2023-03-20T12:45:39.781Z,9.75
2023-03-20T12:48:38.051Z,11.00
2023-03-20T12:51:37.574Z,10.57
2023-03-20T12:54:32.902Z,11.38
2023-03-20T12:57:26.527Z,14.27
2023-03-20T13:01:04.377Z,13.40
2023-03-20T13:03:47.529Z,10.48
2023-03-20T13:06:39.941Z,12.25
2023-03-20T13:09:48.320Z,10.48
2023-03-20T13:12:36.485Z,12.07
2023-03-20T13:15:26.056Z,11.02
2023-03-20T13:18:42.135Z,11.45
2023-03-20T13:21:17.089Z,9.68
2023-03-20T13:24:19.434Z,12.60
2023-03-20T13:27:05.701Z,14.68
2023-03-20T13:30:14.713Z,12.40
2023-03-20T13:33:13.474Z,11.90
2023-03-20T13:36:02.109Z,14.45
2023-03-20T13:38:37.094Z,17.42
2023-03-20T13:41:09.846Z,14.45
2023-03-20T13:43:48.599Z,12.38
2023-03-20T13:46:25.266Z,13.02
2023-03-20T13:51:39.061Z,12.93
2023-03-20T13:54:32.012Z,15.27
2023-03-20T13:57:18.026Z,12.15
2023-03-20T14:00:18.771Z,15.65
2023-03-20T14:03:37.163Z,17.05
2023-03-20T14:06:39.666Z,15.13
2023-03-20T14:09:31.758Z,16.35
2023-03-20T14:12:11.249Z,15.45
2023-03-20T14:14:50.115Z,14.18
2023-03-20T14:17:22.304Z,18.23
2023-03-20T14:19:51.465Z,12.95
2023-03-20T14:22:35.965Z,14.25
2023-03-20T14:25:18.264Z,14.68
2023-03-20T14:27:59.551Z,16.80
2023-03-20T14:30:37.256Z,16.88
2023-03-20T14:33:15.999Z,14.85
2023-03-20T14:36:11.183Z,16.70
2023-03-20T14:39:06.748Z,15.23
2023-03-20T14:42:01.037Z,17.10
2023-03-20T14:44:55.492Z,14.40
2023-03-20T14:47:55.960Z,20.55
2023-03-20T14:50:32.254Z,19.90
2023-03-20T14:52:59.734Z,18.90
2023-03-20T14:55:30.380Z,16.55
2023-03-20T14:58:03.950Z,21.73
2023-03-20T15:00:44.201Z,19.75
2023-03-20T15:03:17.288Z,22.67
2023-03-20T15:05:46.040Z,19.77
2023-03-20T15:08:25.795Z,21.40
2023-03-20T15:10:57.362Z,23.80
2023-03-20T15:13:26.886Z,17.23
2023-03-20T15:16:05.227Z,19.52
2023-03-20T15:18:39.564Z,19.95
2023-03-20T15:21:41.184Z,20.40
2023-03-20T15:24:19.445Z,20.23
2023-03-20T15:26:46.621Z,19.50
2023-03-20T15:29:18.817Z,18.77
2023-03-20T15:31:46.140Z,17.55
2023-03-20T15:34:23.674Z,18.23
2023-03-20T15:36:51.640Z,19.00
2023-03-20T15:39:27.759Z,19.77
2023-03-20T15:42:02.899Z,17.30
2023-03-20T15:44:39.032Z,15.88
2023-03-20T15:47:20.468Z,19.75
2023-03-20T15:49:57.842Z,19.77
2023-03-20T15:52:44.082Z,21.23
2023-03-20T15:55:18.168Z,20.73
2023-03-20T15:57:47.167Z,23.33
2023-03-20T16:00:30.779Z,20.08
2023-03-20T16:03:04.622Z,20.85
2023-03-20T16:05:32.462Z,17.92
2023-03-20T16:08:14.442Z,22.17
2023-03-20T16:10:43.821Z,16.80
2023-03-20T16:13:14.406Z,21.60
2023-03-20T16:15:41.570Z,18.67
2023-03-20T16:18:11.696Z,19.50
2023-03-20T16:20:45.919Z,20.52
2023-03-20T16:23:32.451Z,18.88
2023-03-20T16:26:00.766Z,19.67
2023-03-20T16:28:28.744Z,18.63
2023-03-20T16:31:33.941Z,17.75
2023-03-20T16:34:18.042Z,18.00
2023-03-20T16:37:01.808Z,19.73
2023-03-20T16:39:31.296Z,17.73
2023-03-20T16:42:25.944Z,20.40
2023-03-20T16:44:58.062Z,18.80
2023-03-20T16:47:36.125Z,19.67
2023-03-20T16:50:11.712Z,18.92
2023-03-20T16:52:46.734Z,17.27
2023-03-20T16:55:24.242Z,15.93
2023-03-20T16:57:57.270Z,17.45
2023-03-20T17:00:31.716Z,16.60
2023-03-20T17:03:20.462Z,16.80
2023-03-20T17:05:57.964Z,17.67
2023-03-20T17:08:49.366Z,17.00
2023-03-20T17:11:28.498Z,15.48
2023-03-20T17:13:55.518Z,17.88
2023-03-20T17:16:23.008Z,17.73
2023-03-20T17:19:10.711Z,22.05
2023-03-20T17:21:37.618Z,17.58
2023-03-20T17:24:05.364Z,16.08
2023-03-20T17:26:32.398Z,21.10
2023-03-20T17:28:59.416Z,18.67
2023-03-20T17:31:26.504Z,18.77
2023-03-20T17:33:53.939Z,18.70
2023-03-20T17:36:28.646Z,19.00
2023-03-20T17:38:57.761Z,19.55
2023-03-20T17:41:25.847Z,18.60
2023-03-20T17:43:53.502Z,21.60
2023-03-20T17:46:24.235Z,21.70
2023-03-20T17:48:54.796Z,19.52
2023-03-20T17:51:21.779Z,22.17
2023-03-20T17:53:48.871Z,19.02
2023-03-20T17:56:16.909Z,23.13
2023-03-20T17:58:45.130Z,19.70
2023-03-20T18:01:13.483Z,22.80
2023-03-20T18:03:41.302Z,20.73
2023-03-20T18:06:28.594Z,19.83
2023-03-20T18:08:57.335Z,20.42
2023-03-20T18:11:25.340Z,19.17
2023-03-20T18:13:52.317Z,17.85
2023-03-20T18:16:23.902Z,18.92
2023-03-20T18:18:52.713Z,18.85
2023-03-20T18:21:20.058Z,21.58
2023-03-20T18:23:47.273Z,22.33
2023-03-20T18:26:25.980Z,18.98
2023-03-20T18:28:54.717Z,16.38
2023-03-20T18:31:22.231Z,23.02
2023-03-20T18:33:52.062Z,19.92
2023-03-20T18:36:24.365Z,19.52
2023-03-20T18:38:52.421Z,19.13
2023-03-20T18:41:20.562Z,18.42
2023-03-20T18:43:48.187Z,20.25
2023-03-20T18:46:21.224Z,17.33
2023-03-20T18:48:52.075Z,18.45
2023-03-20T18:51:20.501Z,17.77
2023-03-20T18:53:47.463Z,17.33
2023-03-20T18:56:25.334Z,17.45
2023-03-20T18:58:53.974Z,16.58
2023-03-20T19:01:21.798Z,17.92
2023-03-20T19:03:48.897Z,16.25
2023-03-20T19:06:18.182Z,18.52
2023-03-20T19:08:46.908Z,18.83
2023-03-20T19:11:21.058Z,17.77
2023-03-20T19:13:53.815Z,19.13
2023-03-20T19:16:33.173Z,21.00
2023-03-20T19:19:03.429Z,18.00
2023-03-20T19:21:32.823Z,20.45
2023-03-20T19:24:04.664Z,17.75
2023-03-20T19:26:34.193Z,17.25
2023-03-20T19:29:02.934Z,18.17
2023-03-20T19:31:30.468Z,16.90
2023-03-20T19:33:57.640Z,17.35
2023-03-20T19:36:34.224Z,15.90
2023-03-20T19:39:04.992Z,17.55
2023-03-20T19:41:32.502Z,16.73
2023-03-20T19:44:01.359Z,16.55
2023-03-20T19:46:39.782Z,14.50
2023-03-20T19:49:30.831Z,20.58
2023-03-20T19:51:58.237Z,15.32
2023-03-20T19:54:25.523Z,17.45
2023-03-20T19:56:52.624Z,15.48
2023-03-20T19:59:21.105Z,16.00
2023-03-20T20:01:48.555Z,16.55
2023-03-20T20:04:16.370Z,17.25
2023-03-20T20:06:43.557Z,17.02
2023-03-20T20:09:10.727Z,16.95
2023-03-20T20:11:37.741Z,18.20
2023-03-20T20:14:08.621Z,21.25
2023-03-20T20:16:39.360Z,18.48
2023-03-20T20:19:06.951Z,16.30
2023-03-20T20:27:03.492Z,14.25
2023-03-20T20:29:38.622Z,17.92
2023-03-20T20:32:06.539Z,19.73
2023-03-20T20:40:16.575Z,17.67
2023-03-20T20:42:47.588Z,18.63
2023-03-20T20:45:15.325Z,19.75
2023-03-20T20:47:44.898Z,21.02
2023-03-20T20:50:15.486Z,19.05
2023-03-20T20:52:43.299Z,17.45
2023-03-20T20:55:22.493Z,17.35
2023-03-20T20:57:52.398Z,16.05
2023-03-20T21:00:27.552Z,14.88
2023-03-20T21:02:58.699Z,14.57
2023-03-20T21:05:27.564Z,14.13
2023-03-20T21:07:54.762Z,13.35
2023-03-20T21:10:22.173Z,13.00
2023-03-20T21:12:59.225Z,13.50
2023-03-20T21:15:27.545Z,13.50
2023-03-20T21:18:01.198Z,12.93
2023-03-20T21:20:30.421Z,9.57
2023-03-20T21:22:58.205Z,14.02
2023-03-20T21:25:39.105Z,11.15
2023-03-20T21:28:06.786Z,12.10
2023-03-20T21:30:34.206Z,13.13
2023-03-20T21:33:01.599Z,11.80
2023-03-20T21:35:29.104Z,14.00
2023-03-20T21:40:43.975Z,13.20
2023-03-20T21:43:11.662Z,10.70
2023-03-20T21:46:21.087Z,11.90
2023-03-20T21:52:20.049Z,9.15
2023-03-20T22:02:27.229Z,10.50
2023-03-20T22:25:15.936Z,11.45
2023-03-20T22:27:56.613Z,11.68
2023-03-20T22:30:58.090Z,12.85
2023-03-20T22:33:46.957Z,11.05
2023-03-20T22:46:54.608Z,8.50
2023-03-20T22:49:21.606Z,10.35
2023-03-20T22:52:07.725Z,9.68
2023-03-20T22:54:36.304Z,12.15
2023-03-20T22:57:03.601Z,9.23
2023-03-20T22:59:30.920Z,9.48
2023-03-20T23:01:57.938Z,10.73
2023-03-20T23:04:24.997Z,10.82
2023-03-20T23:06:52.024Z,8.23
2023-03-20T23:09:19.277Z,9.07
2023-03-20T23:11:47.341Z,8.77
2023-03-20T23:14:21.122Z,9.40
2023-03-20T23:16:50.106Z,8.13
2023-03-20T23:19:17.448Z,9.07
2023-03-20T23:21:44.666Z,9.82
2023-03-20T23:24:11.753Z,9.73
2023-03-20T23:26:38.866Z,13.43
2023-03-20T23:29:06.402Z,10.70
2023-03-20T23:31:33.426Z,7.35
2023-03-20T23:34:00.690Z,7.07
2023-03-20T23:36:37.195Z,10.02
2023-03-20T23:39:11.668Z,9.27
2023-03-20T23:42:08.356Z,9.35
2023-03-20T23:44:26.333Z,9.07
2023-03-20T23:46:54.656Z,10.18
2023-03-20T23:49:22.034Z,10.70
2023-03-20T23:51:49.092Z,7.82
2023-03-20T23:54:16.133Z,13.05
2023-03-20T23:56:43.194Z,9.73
2023-03-20T23:59:21.079Z,13.05
